sensor_id;sensor_type;location;lat;lon;timestamp;P1;durP1;ratioP1;P2;durP2;ratioP2
42662;SDS011;44330;51.360;6.686;2023-05-07T17:22:23;11.77;;;7.85;;
42662;SDS011;44330;51.360;6.686;2023-05-07T17:25:09;9.25;;;8.00;;
42662;SDS011;44330;51.360;6.686;2023-05-07T17:51:56;12.02;;;7.93;;
42662;SDS011;44330;51.360;6.686;2023-05-07T17:54:52;10.98;;;8.50;;
42662;SDS011;44330;51.360;6.686;2023-05-07T17:57:32;9.88;;;7.97;;
42662;SDS011;44330;51.360;6.686;2023-05-07T18:00:33;10.07;;;7.47;;
42662;SDS011;44330;51.360;6.686;2023-05-07T18:03:49;15.73;;;8.80;;
42662;SDS011;44330;51.360;6.686;2023-05-07T18:06:46;12.55;;;7.80;;
42662;SDS011;44330;51.360;6.686;2023-05-07T18:09:19;12.55;;;8.63;;
42662;SDS011;44330;51.360;6.686;2023-05-07T18:15:34;12.45;;;8.25;;
42662;SDS011;44330;51.360;6.686;2023-05-07T18:21:34;10.70;;;8.60;;
42662;SDS011;44330;51.360;6.686;2023-05-07T18:24:15;11.60;;;8.85;;
42662;SDS011;44330;51.360;6.686;2023-05-07T18:26:43;10.27;;;8.35;;
42662;SDS011;44330;51.360;6.686;2023-05-07T18:29:09;11.27;;;9.15;;
42662;SDS011;44330;51.360;6.686;2023-05-07T18:31:38;10.27;;;8.30;;
42662;SDS011;44330;51.360;6.686;2023-05-07T18:34:09;10.98;;;8.80;;
42662;SDS011;44330;51.360;6.686;2023-05-07T18:36:34;10.85;;;8.32;;
42662;SDS011;44330;51.360;6.686;2023-05-07T18:39:03;10.38;;;8.10;;
42662;SDS011;44330;51.360;6.686;2023-05-07T18:41:28;9.82;;;7.50;;
42662;SDS011;44330;51.360;6.686;2023-05-07T18:43:54;15.25;;;8.05;;
42662;SDS011;44330;51.360;6.686;2023-05-07T18:46:27;15.55;;;8.60;;
42662;SDS011;44330;51.360;6.686;2023-05-07T18:48:58;10.35;;;7.95;;
42662;SDS011;44330;51.360;6.686;2023-05-07T18:51:24;11.38;;;7.85;;
42662;SDS011;44330;51.360;6.686;2023-05-07T18:53:51;15.00;;;8.77;;
42662;SDS011;44330;51.360;6.686;2023-05-07T18:56:16;10.68;;;8.82;;
42662;SDS011;44330;51.360;6.686;2023-05-07T18:58:42;9.50;;;7.88;;
42662;SDS011;44330;51.360;6.686;2023-05-07T19:01:08;14.75;;;9.50;;
42662;SDS011;44330;51.360;6.686;2023-05-07T19:03:38;11.95;;;8.70;;
42662;SDS011;44330;51.360;6.686;2023-05-07T19:06:04;10.88;;;9.40;;
42662;SDS011;44330;51.360;6.686;2023-05-07T19:08:32;9.55;;;8.55;;
42662;SDS011;44330;51.360;6.686;2023-05-07T19:10:58;10.75;;;8.68;;
42662;SDS011;44330;51.360;6.686;2023-05-07T19:13:24;11.85;;;8.95;;
42662;SDS011;44330;51.360;6.686;2023-05-07T19:15:54;11.13;;;8.97;;
42662;SDS011;44330;51.360;6.686;2023-05-07T19:18:33;13.98;;;9.77;;
42662;SDS011;44330;51.360;6.686;2023-05-07T19:23:28;11.23;;;9.73;;
42662;SDS011;44330;51.360;6.686;2023-05-07T19:25:59;14.25;;;10.80;;
42662;SDS011;44330;51.360;6.686;2023-05-07T19:28:33;13.20;;;10.40;;
42662;SDS011;44330;51.360;6.686;2023-05-07T19:30:59;11.95;;;10.10;;
42662;SDS011;44330;51.360;6.686;2023-05-07T19:33:25;16.25;;;10.75;;
42662;SDS011;44330;51.360;6.686;2023-05-07T19:35:52;15.38;;;11.77;;
42662;SDS011;44330;51.360;6.686;2023-05-07T19:38:22;15.48;;;11.82;;
42662;SDS011;44330;51.360;6.686;2023-05-07T19:40:57;16.05;;;12.73;;
42662;SDS011;44330;51.360;6.686;2023-05-07T19:44:13;15.32;;;12.68;;
42662;SDS011;44330;51.360;6.686;2023-05-07T19:47:05;17.35;;;13.32;;
42662;SDS011;44330;51.360;6.686;2023-05-07T19:49:43;15.75;;;12.43;;
42662;SDS011;44330;51.360;6.686;2023-05-07T19:52:17;19.17;;;13.60;;
42662;SDS011;44330;51.360;6.686;2023-05-07T19:54:43;18.88;;;14.30;;
42662;SDS011;44330;51.360;6.686;2023-05-07T19:57:09;17.52;;;12.88;;
42662;SDS011;44330;51.360;6.686;2023-05-07T19:59:45;14.90;;;13.27;;
42662;SDS011;44330;51.360;6.686;2023-05-07T20:05:43;16.77;;;12.93;;
42662;SDS011;44330;51.360;6.686;2023-05-07T20:08:15;17.65;;;13.50;;
42662;SDS011;44330;51.360;6.686;2023-05-07T20:10:43;18.60;;;14.50;;
42662;SDS011;44330;51.360;6.686;2023-05-07T20:13:09;18.00;;;13.15;;
42662;SDS011;44330;51.360;6.686;2023-05-07T20:15:35;18.15;;;13.55;;
42662;SDS011;44330;51.360;6.686;2023-05-07T20:18:02;20.40;;;13.63;;
42662;SDS011;44330;51.360;6.686;2023-05-07T20:20:28;23.27;;;14.15;;
42662;SDS011;44330;51.360;6.686;2023-05-07T20:22:53;19.95;;;14.25;;
42662;SDS011;44330;51.360;6.686;2023-05-07T20:25:19;18.77;;;13.57;;
42662;SDS011;44330;51.360;6.686;2023-05-07T20:27:45;16.48;;;13.98;;
42662;SDS011;44330;51.360;6.686;2023-05-07T20:30:10;16.90;;;13.88;;
42662;SDS011;44330;51.360;6.686;2023-05-07T20:32:36;20.02;;;13.85;;
42662;SDS011;44330;51.360;6.686;2023-05-07T20:35:02;19.65;;;14.55;;
42662;SDS011;44330;51.360;6.686;2023-05-07T20:37:30;17.30;;;13.57;;
42662;SDS011;44330;51.360;6.686;2023-05-07T20:39:57;17.60;;;13.88;;
42662;SDS011;44330;51.360;6.686;2023-05-07T20:42:24;20.88;;;14.60;;
42662;SDS011;44330;51.360;6.686;2023-05-07T20:44:49;19.73;;;14.98;;
42662;SDS011;44330;51.360;6.686;2023-05-07T20:47:15;24.80;;;14.70;;
42662;SDS011;44330;51.360;6.686;2023-05-07T20:49:41;21.05;;;15.63;;
42662;SDS011;44330;51.360;6.686;2023-05-07T20:52:07;18.40;;;14.52;;
42662;SDS011;44330;51.360;6.686;2023-05-07T20:54:32;24.67;;;15.98;;
42662;SDS011;44330;51.360;6.686;2023-05-07T20:57:04;19.63;;;14.27;;
42662;SDS011;44330;51.360;6.686;2023-05-07T20:59:30;22.20;;;15.05;;
42662;SDS011;44330;51.360;6.686;2023-05-07T21:01:58;20.25;;;15.20;;
42662;SDS011;44330;51.360;6.686;2023-05-07T21:04:24;20.40;;;15.50;;
42662;SDS011;44330;51.360;6.686;2023-05-07T21:06:50;22.50;;;15.25;;
42662;SDS011;44330;51.360;6.686;2023-05-07T21:09:16;20.95;;;15.55;;
42662;SDS011;44330;51.360;6.686;2023-05-07T21:11:41;19.20;;;15.13;;
42662;SDS011;44330;51.360;6.686;2023-05-07T21:14:07;23.38;;;15.90;;
42662;SDS011;44330;51.360;6.686;2023-05-07T21:16:32;23.25;;;16.65;;
42662;SDS011;44330;51.360;6.686;2023-05-07T21:18:58;23.17;;;15.13;;
42662;SDS011;44330;51.360;6.686;2023-05-07T21:21:24;20.73;;;15.07;;
42662;SDS011;44330;51.360;6.686;2023-05-07T21:23:50;24.35;;;16.15;;
42662;SDS011;44330;51.360;6.686;2023-05-07T21:26:17;21.42;;;15.13;;
42662;SDS011;44330;51.360;6.686;2023-05-07T21:28:43;23.42;;;15.85;;
42662;SDS011;44330;51.360;6.686;2023-05-07T21:31:09;22.08;;;15.15;;
42662;SDS011;44330;51.360;6.686;2023-05-07T21:33:35;20.15;;;15.43;;
42662;SDS011;44330;51.360;6.686;2023-05-07T21:36:01;19.20;;;14.27;;
42662;SDS011;44330;51.360;6.686;2023-05-07T21:38:27;20.92;;;14.23;;
42662;SDS011;44330;51.360;6.686;2023-05-07T21:40:52;19.60;;;15.02;;
42662;SDS011;44330;51.360;6.686;2023-05-07T21:43:18;23.40;;;14.93;;
42662;SDS011;44330;51.360;6.686;2023-05-07T21:45:43;17.25;;;13.15;;
42662;SDS011;44330;51.360;6.686;2023-05-07T21:48:12;20.48;;;13.88;;
42662;SDS011;44330;51.360;6.686;2023-05-07T21:50:38;18.45;;;14.18;;
42662;SDS011;44330;51.360;6.686;2023-05-07T21:53:03;20.25;;;14.30;;
42662;SDS011;44330;51.360;6.686;2023-05-07T21:55:29;20.83;;;15.10;;
42662;SDS011;44330;51.360;6.686;2023-05-07T21:57:55;23.10;;;15.48;;
42662;SDS011;44330;51.360;6.686;2023-05-07T22:00:23;20.80;;;15.63;;
42662;SDS011;44330;51.360;6.686;2023-05-07T22:05:17;22.17;;;14.43;;
42662;SDS011;44330;51.360;6.686;2023-05-07T22:07:46;20.02;;;14.32;;
42662;SDS011;44330;51.360;6.686;2023-05-07T22:10:11;17.73;;;13.27;;
42662;SDS011;44330;51.360;6.686;2023-05-07T22:12:37;17.30;;;13.05;;
42662;SDS011;44330;51.360;6.686;2023-05-07T22:17:34;16.83;;;12.35;;
42662;SDS011;44330;51.360;6.686;2023-05-07T22:20:00;17.40;;;12.07;;
42662;SDS011;44330;51.360;6.686;2023-05-07T22:22:26;15.85;;;12.05;;
42662;SDS011;44330;51.360;6.686;2023-05-07T22:24:51;15.07;;;10.70;;
42662;SDS011;44330;51.360;6.686;2023-05-07T22:27:17;19.67;;;11.65;;
42662;SDS011;44330;51.360;6.686;2023-05-07T22:29:45;20.58;;;11.65;;
42662;SDS011;44330;51.360;6.686;2023-05-07T22:32:15;15.75;;;11.13;;
42662;SDS011;44330;51.360;6.686;2023-05-07T22:34:48;16.30;;;10.63;;
42662;SDS011;44330;51.360;6.686;2023-05-07T22:37:14;14.65;;;11.20;;
42662;SDS011;44330;51.360;6.686;2023-05-07T22:39:42;16.23;;;10.55;;
42662;SDS011;44330;51.360;6.686;2023-05-07T22:42:13;13.20;;;9.93;;
42662;SDS011;44330;51.360;6.686;2023-05-07T22:44:43;12.27;;;9.93;;
42662;SDS011;44330;51.360;6.686;2023-05-07T22:47:11;15.95;;;10.00;;
42662;SDS011;44330;51.360;6.686;2023-05-07T22:49:37;13.80;;;9.48;;
42662;SDS011;44330;51.360;6.686;2023-05-07T22:52:07;15.80;;;9.88;;
42662;SDS011;44330;51.360;6.686;2023-05-07T22:54:33;14.47;;;9.47;;
42662;SDS011;44330;51.360;6.686;2023-05-07T22:56:58;10.48;;;9.02;;
42662;SDS011;44330;51.360;6.686;2023-05-07T22:59:24;12.13;;;9.25;;
42662;SDS011;44330;51.360;6.686;2023-05-07T23:01:50;13.02;;;9.57;;
42662;SDS011;44330;51.360;6.686;2023-05-07T23:04:16;12.07;;;9.82;;
42662;SDS011;44330;51.360;6.686;2023-05-07T23:06:47;11.63;;;10.13;;
42662;SDS011;44330;51.360;6.686;2023-05-07T23:09:13;16.45;;;9.18;;
42662;SDS011;44330;51.360;6.686;2023-05-07T23:11:43;12.05;;;8.88;;
42662;SDS011;44330;51.360;6.686;2023-05-07T23:14:14;12.70;;;9.50;;
42662;SDS011;44330;51.360;6.686;2023-05-07T23:16:59;11.48;;;10.07;;
42662;SDS011;44330;51.360;6.686;2023-05-07T23:19:25;15.00;;;10.23;;
42662;SDS011;44330;51.360;6.686;2023-05-07T23:21:53;13.20;;;9.90;;
42662;SDS011;44330;51.360;6.686;2023-05-07T23:24:44;15.80;;;10.48;;
42662;SDS011;44330;51.360;6.686;2023-05-07T23:27:13;17.02;;;11.00;;
42662;SDS011;44330;51.360;6.686;2023-05-07T23:29:41;12.85;;;10.07;;
42662;SDS011;44330;51.360;6.686;2023-05-07T23:32:09;12.43;;;10.10;;
42662;SDS011;44330;51.360;6.686;2023-05-07T23:34:47;15.27;;;11.48;;
42662;SDS011;44330;51.360;6.686;2023-05-07T23:37:14;17.17;;;11.05;;
42662;SDS011;44330;51.360;6.686;2023-05-07T23:39:40;14.60;;;11.50;;
42662;SDS011;44330;51.360;6.686;2023-05-07T23:42:10;16.83;;;11.60;;
42662;SDS011;44330;51.360;6.686;2023-05-07T23:44:38;16.30;;;11.57;;
42662;SDS011;44330;51.360;6.686;2023-05-07T23:47:06;15.15;;;11.07;;
42662;SDS011;44330;51.360;6.686;2023-05-07T23:49:34;14.43;;;10.70;;
42662;SDS011;44330;51.360;6.686;2023-05-07T23:52:02;13.07;;;10.15;;
42662;SDS011;44330;51.360;6.686;2023-05-07T23:54:32;15.00;;;11.80;;
42662;SDS011;44330;51.360;6.686;2023-05-07T23:57:16;13.85;;;11.18;;
